Hlavní strana
METAR-TAF:

METAR-TAF

Letiště :

Dakar, Senegal

zeměpisná šířka: 14-44N, zeměpisná délka: 017-30W, výška: 27 m

Aktuální stav počasí

Zpráva byla vytvořena před 1 hodinou a 19 minutami, v 21:00 UTC
Severní vítr 6 kt
Teplota 20°C
Vlhkost vzduchu 88%
Tlak 1012 hPa
Viditelnost: 8000 m

METAR: GOOY 252100Z 36006KT 8000 NSC 20/18 Q1012

Čas: 22:19 (22:19 UTC)

Předpověď počasí

Zpráva byla vytvořena před 4 hodinami a 49 minutami, v 17:30 UTC
Předpověď platná od 25 v 18 UTC do 26 v 24 UTC
Severní vítr 8 kt
Viditelnost: 8000 m

TAF: GOOY 251730Z 2518/2624 36008KT 8000 NSC

Stav a předpovědi počasí z více než 4 000 letišť (zprávy METAR a TAF).

Červené a žluté tečky na mapě představují dostupné meteorologické stanice.

Když kurzor umístíte na tečku, zobrazí se název stanice.

Pak kliknutím zobrazíte stav a předpověď počasí.

Chcete-li změnit mapu, kliknutím na zelené tlačítko se znaménkem +mapu přiblížíte, kliknutím na zelené tlačítko se znaménkem – mapu oddálíte a kliknutím na zelené šipky přejdete na sousední mapy.


METAR-TAF: